Time;durP1;ratioP1;P1;durP2;ratioP2;P2;SDS_P1;SDS_P2;PMS_P1;PMS_P2;Temp;Humidity;BMP_temperature;BMP_pressure;BME280_temperature;BME280_humidity;BME280_pressure;Samples;Min_cycle;Max_cycle;Signal;HPM_P1;HPM_P2
2020/12/21 00:00:08;;;;;;;7.57;3.90;;;6.90;99.90;;;;;;5111883;27;20108;-74
2020/12/21 00:02:34;;;;;;;8.13;4.63;;;6.80;99.90;;;;;;5106300;27;20054;-73
2020/12/21 00:05:01;;;;;;;7.80;4.32;;;6.90;99.90;;;;;;5110560;27;20071;-73
2020/12/21 00:07:27;;;;;;;5.38;4.38;;;6.80;99.90;;;;;;5110342;27;20052;-73
2020/12/21 00:09:54;;;;;;;6.82;4.50;;;6.80;99.90;;;;;;5096847;27;20104;-72
2020/12/21 00:12:20;;;;;;;7.47;4.53;;;6.80;99.90;;;;;;5130633;27;20119;-73
2020/12/21 00:14:47;;;;;;;7.50;4.35;;;6.70;99.90;;;;;;5129700;27;20051;-72
2020/12/21 00:17:13;;;;;;;8.40;4.22;;;6.70;99.90;;;;;;5118557;27;20419;-73
2020/12/21 00:19:41;;;;;;;7.88;4.68;;;6.70;99.90;;;;;;5115165;27;20055;-73
2020/12/21 00:22:08;;;;;;;6.22;4.38;;;6.70;99.90;;;;;;5109816;27;20047;-74
2020/12/21 00:24:34;;;;;;;7.05;4.05;;;6.70;99.90;;;;;;5111167;27;20051;-72
2020/12/21 00:27:00;;;;;;;7.30;4.28;;;6.70;99.90;;;;;;5117856;27;20076;-73
2020/12/21 00:29:27;;;;;;;5.97;3.70;;;6.70;99.90;;;;;;5111243;27;20055;-73
2020/12/21 00:31:56;;;;;;;7.97;4.22;;;6.70;99.90;;;;;;5129706;27;20047;-73
2020/12/21 00:34:23;;;;;;;6.38;4.00;;;6.70;99.90;;;;;;5111089;27;20059;-73
2020/12/21 00:36:50;;;;;;;8.18;4.60;;;6.70;99.90;;;;;;5116115;27;20048;-73
2020/12/21 00:39:19;;;;;;;5.60;4.50;;;6.60;99.90;;;;;;5118133;27;20143;-73
2020/12/21 00:41:47;;;;;;;9.20;5.10;;;6.60;99.90;;;;;;5102105;28;20062;-73
2020/12/21 00:44:14;;;;;;;6.43;4.57;;;6.50;99.90;;;;;;5110739;28;20058;-73
2020/12/21 00:46:41;;;;;;;6.75;4.40;;;6.40;99.90;;;;;;5119411;27;20044;-73
2020/12/21 00:49:08;;;;;;;6.07;4.85;;;6.50;99.90;;;;;;5111848;28;20051;-74
2020/12/21 00:51:35;;;;;;;10.60;5.10;;;6.50;99.90;;;;;;5129565;27;20547;-73
2020/12/21 00:54:02;;;;;;;6.22;5.63;;;6.50;99.90;;;;;;5129047;27;20043;-74
2020/12/21 00:56:28;;;;;;;6.55;5.53;;;6.50;99.90;;;;;;5127938;28;20051;-73
2020/12/21 00:58:55;;;;;;;9.23;5.90;;;6.60;99.90;;;;;;5116688;28;20043;-74
2020/12/21 01:01:26;;;;;;;8.70;5.95;;;6.60;99.90;;;;;;5128640;28;20082;-73
2020/12/21 01:03:58;;;;;;;7.47;5.72;;;6.70;99.90;;;;;;5129459;27;20345;-73
2020/12/21 01:06:25;;;;;;;9.25;6.53;;;6.60;99.90;;;;;;5102794;28;20120;-73
2020/12/21 01:08:55;;;;;;;6.43;5.35;;;6.60;99.90;;;;;;5129886;27;20055;-73
2020/12/21 01:11:22;;;;;;;9.07;6.28;;;6.50;99.90;;;;;;5128693;28;20036;-73
2020/12/21 01:13:49;;;;;;;8.25;5.68;;;6.40;99.90;;;;;;5129220;28;20047;-73
2020/12/21 01:16:19;;;;;;;10.20;6.13;;;6.40;99.90;;;;;;5119454;28;20054;-73
2020/12/21 01:18:45;;;;;;;8.35;6.45;;;6.30;99.90;;;;;;5129812;28;20035;-73
2020/12/21 01:21:21;;;;;;;9.43;6.43;;;6.20;99.90;;;;;;5128500;28;20043;-73
2020/12/21 01:23:48;;;;;;;8.48;6.95;;;6.20;99.90;;;;;;5128906;28;20486;-74
2020/12/21 01:26:15;;;;;;;7.65;5.95;;;6.10;99.90;;;;;;5098981;28;20082;-74
2020/12/21 01:28:43;;;;;;;9.57;7.70;;;6.00;99.90;;;;;;5129345;28;20035;-73
2020/12/21 01:31:09;;;;;;;9.45;7.28;;;6.00;99.90;;;;;;5129232;27;20108;-73
2020/12/21 01:33:36;;;;;;;9.63;7.85;;;5.90;99.90;;;;;;5129703;28;20047;-73
2020/12/21 01:36:04;;;;;;;9.85;7.60;;;5.80;99.90;;;;;;5119206;28;20073;-73
2020/12/21 01:38:30;;;;;;;8.55;7.43;;;5.70;99.90;;;;;;5108027;28;20056;-73
2020/12/21 01:40:57;;;;;;;13.35;8.93;;;5.60;99.90;;;;;;5095576;28;20516;-74
2020/12/21 01:43:23;;;;;;;11.85;9.45;;;5.60;99.90;;;;;;5128612;27;20074;-73
2020/12/21 01:45:49;;;;;;;14.80;10.18;;;5.50;99.90;;;;;;5122745;28;20079;-73
2020/12/21 01:48:16;;;;;;;14.50;9.70;;;5.50;99.90;;;;;;5129128;28;20159;-73
2020/12/21 01:50:42;;;;;;;12.40;10.07;;;5.40;99.90;;;;;;5128814;27;20141;-74
2020/12/21 01:53:12;;;;;;;14.27;11.32;;;5.40;99.90;;;;;;5099471;28;20047;-74
2020/12/21 01:55:42;;;;;;;16.67;13.35;;;5.40;99.90;;;;;;5107940;28;20070;-73
2020/12/21 01:58:08;;;;;;;18.38;12.05;;;5.40;99.90;;;;;;5128330;27;20063;-74
2020/12/21 02:00:34;;;;;;;18.20;13.52;;;5.50;99.90;;;;;;5129061;27;20143;-74
2020/12/21 02:03:01;;;;;;;16.02;12.32;;;5.50;99.90;;;;;;5111341;27;20078;-73
2020/12/21 02:05:28;;;;;;;18.50;12.45;;;5.60;99.90;;;;;;5108549;28;20123;-73
2020/12/21 02:07:54;;;;;;;15.23;11.52;;;5.60;99.90;;;;;;5109979;27;20096;-74
2020/12/21 02:10:21;;;;;;;13.25;9.98;;;5.70;99.90;;;;;;5131939;27;20050;-73
2020/12/21 02:12:48;;;;;;;16.60;9.50;;;5.80;99.90;;;;;;5114339;27;20123;-74
2020/12/21 02:15:14;;;;;;;11.50;8.90;;;5.90;99.90;;;;;;5110383;27;20071;-73
2020/12/21 02:17:41;;;;;;;9.70;8.15;;;6.00;99.90;;;;;;5124179;27;20410;-73
2020/12/21 02:20:07;;;;;;;12.00;7.63;;;6.00;99.90;;;;;;5113550;27;20462;-74
2020/12/21 02:22:33;;;;;;;11.98;7.35;;;6.00;99.90;;;;;;5132376;27;20078;-73
2020/12/21 02:25:00;;;;;;;8.65;6.68;;;6.00;99.90;;;;;;5130480;27;20047;-73
2020/12/21 02:27:28;;;;;;;9.32;6.35;;;6.00;99.90;;;;;;5103193;27;20051;-73
2020/12/21 02:29:54;;;;;;;8.98;6.75;;;6.00;99.90;;;;;;5112883;27;20462;-73
2020/12/21 02:32:20;;;;;;;9.63;7.13;;;6.00;99.90;;;;;;5113505;27;20212;-73
2020/12/21 02:34:52;;;;;;;10.13;7.57;;;6.00;99.90;;;;;;5129089;27;20493;-73
2020/12/21 02:37:19;;;;;;;9.90;7.05;;;5.90;99.90;;;;;;5117392;27;20047;-73
2020/12/21 02:39:45;;;;;;;11.95;8.82;;;5.70;99.90;;;;;;5122458;27;20051;-73
2020/12/21 02:42:12;;;;;;;15.70;8.30;;;5.60;99.90;;;;;;5107438;27;20047;-75
2020/12/21 02:44:38;;;;;;;13.55;8.20;;;5.50;99.90;;;;;;5113087;27;20079;-74
2020/12/21 02:47:04;;;;;;;11.38;8.35;;;5.30;99.90;;;;;;5123916;27;20082;-74
2020/12/21 02:49:31;;;;;;;13.05;8.40;;;5.20;99.90;;;;;;5130949;27;20049;-73
2020/12/21 02:51:57;;;;;;;13.68;9.68;;;5.00;99.90;;;;;;5131441;27;20074;-73
2020/12/21 02:54:23;;;;;;;15.80;10.25;;;5.00;99.90;;;;;;5130683;27;20096;-73
2020/12/21 02:56:52;;;;;;;12.85;9.77;;;5.00;99.90;;;;;;5122419;27;20359;-73
2020/12/21 02:59:19;;;;;;;17.52;10.45;;;5.00;99.90;;;;;;5110864;27;20062;-73
2020/12/21 03:01:46;;;;;;;16.63;10.93;;;5.00;99.90;;;;;;5130768;27;20155;-73
2020/12/21 03:04:12;;;;;;;16.48;11.70;;;4.80;99.90;;;;;;5130902;27;20043;-73
2020/12/21 03:06:41;;;;;;;17.00;11.55;;;4.80;99.90;;;;;;5128849;27;20047;-73
2020/12/21 03:09:07;;;;;;;17.58;12.30;;;4.80;99.90;;;;;;5112477;27;20146;-74
2020/12/21 03:11:33;;;;;;;18.83;12.43;;;4.70;99.90;;;;;;5112998;27;20514;-73
2020/12/21 03:14:00;;;;;;;16.45;11.70;;;4.80;99.90;;;;;;5130645;27;20095;-75
2020/12/21 03:16:28;;;;;;;16.10;10.75;;;4.80;99.90;;;;;;5100170;27;20055;-73
2020/12/21 03:18:54;;;;;;;16.38;10.27;;;4.70;99.90;;;;;;5112748;27;20043;-73
2020/12/21 03:21:20;;;;;;;17.35;10.20;;;4.80;99.90;;;;;;5130215;27;20047;-72
2020/12/21 03:23:47;;;;;;;12.70;9.63;;;4.90;99.90;;;;;;5112851;27;20095;-73
2020/12/21 03:26:13;;;;;;;16.77;10.18;;;4.90;99.90;;;;;;5099413;28;20048;-73
2020/12/21 03:28:41;;;;;;;18.48;9.32;;;4.90;99.90;;;;;;5097813;28;20043;-73
2020/12/21 03:31:07;;;;;;;17.92;10.45;;;4.90;99.90;;;;;;5102997;27;20082;-75
2020/12/21 03:33:34;;;;;;;18.52;10.20;;;4.90;99.90;;;;;;5112846;27;20086;-73
2020/12/21 03:36:00;;;;;;;14.93;10.18;;;4.90;99.90;;;;;;5111045;27;20071;-73
2020/12/21 03:38:28;;;;;;;19.13;10.68;;;4.90;99.90;;;;;;5108359;27;20061;-73
2020/12/21 03:40:54;;;;;;;20.95;10.90;;;4.90;99.90;;;;;;5093236;28;20047;-73
2020/12/21 03:43:21;;;;;;;18.30;9.85;;;4.90;99.90;;;;;;5111222;27;20147;-73
2020/12/21 03:45:49;;;;;;;14.45;10.10;;;4.90;99.90;;;;;;5121872;27;20047;-72
2020/12/21 03:48:15;;;;;;;15.70;9.85;;;4.90;99.90;;;;;;5127172;27;20462;-73
2020/12/21 03:50:43;;;;;;;18.02;10.00;;;4.90;99.90;;;;;;5101525;27;20059;-73
2020/12/21 03:53:10;;;;;;;14.15;10.18;;;4.90;99.90;;;;;;5129192;27;20092;-74
2020/12/21 03:55:37;;;;;;;14.48;9.02;;;4.90;99.90;;;;;;5110745;27;20042;-73
2020/12/21 03:58:05;;;;;;;14.18;8.43;;;4.90;99.90;;;;;;5097725;28;20051;-73
2020/12/21 04:00:31;;;;;;;11.80;8.80;;;4.90;99.90;;;;;;5116091;27;20047;-73
2020/12/21 04:02:58;;;;;;;14.32;9.43;;;4.90;99.90;;;;;;5130118;27;20458;-73
2020/12/21 04:05:42;;;;;;;13.10;8.77;;;4.90;99.90;;;;;;5118592;27;20065;-73
2020/12/21 04:08:08;;;;;;;14.15;9.52;;;4.80;99.90;;;;;;5130164;27;20096;-73
2020/12/21 04:10:35;;;;;;;16.00;10.70;;;4.70;99.90;;;;;;5111113;27;20141;-73
2020/12/21 04:13:01;;;;;;;16.25;9.48;;;4.60;99.90;;;;;;5111963;27;20085;-73
2020/12/21 04:15:28;;;;;;;21.20;12.15;;;4.50;99.90;;;;;;5100635;27;20036;-73
2020/12/21 04:17:55;;;;;;;18.90;10.77;;;4.50;99.90;;;;;;5111875;27;20108;-73
2020/12/21 04:20:21;;;;;;;15.23;10.57;;;4.40;99.90;;;;;;5129733;27;20459;-73
2020/12/21 04:22:47;;;;;;;23.33;10.77;;;4.30;99.90;;;;;;5111410;27;20464;-74
2020/12/21 04:25:13;;;;;;;18.40;9.93;;;4.20;99.90;;;;;;5105282;28;20086;-73
2020/12/21 04:27:41;;;;;;;16.58;10.32;;;4.20;99.90;;;;;;5128641;27;20076;-73
2020/12/21 04:30:07;;;;;;;20.83;11.13;;;4.30;99.90;;;;;;5111664;27;20138;-75
2020/12/21 04:32:34;;;;;;;16.92;9.68;;;4.40;99.90;;;;;;5129975;27;20058;-72
2020/12/21 04:35:00;;;;;;;21.55;11.40;;;4.40;99.90;;;;;;5108146;28;20122;-73
2020/12/21 04:37:28;;;;;;;18.08;11.00;;;4.40;99.90;;;;;;5107103;27;20438;-73
2020/12/21 04:39:55;;;;;;;22.17;11.95;;;4.40;99.90;;;;;;5128809;27;20138;-73
2020/12/21 04:42:24;;;;;;;21.40;12.77;;;4.40;99.90;;;;;;5129697;27;20054;-74
2020/12/21 04:44:54;;;;;;;20.58;13.63;;;4.30;99.90;;;;;;5127987;27;20039;-73
2020/12/21 04:47:20;;;;;;;22.17;14.38;;;4.30;99.90;;;;;;5104442;28;20392;-73
2020/12/21 04:49:47;;;;;;;22.55;14.07;;;4.20;99.90;;;;;;5096153;28;20078;-73
2020/12/21 04:52:14;;;;;;;20.38;13.77;;;4.10;99.90;;;;;;5111411;27;20087;-73
2020/12/21 04:54:42;;;;;;;27.73;14.98;;;4.10;99.90;;;;;;5110726;28;20087;-74
2020/12/21 04:57:09;;;;;;;28.55;14.52;;;4.20;99.90;;;;;;5118845;28;20119;-74
2020/12/21 04:59:35;;;;;;;27.00;15.80;;;4.20;99.90;;;;;;5111041;28;20108;-73
2020/12/21 05:02:05;;;;;;;26.85;16.00;;;4.30;99.90;;;;;;5110469;28;20084;-73
2020/12/21 05:04:32;;;;;;;23.30;15.63;;;4.40;99.90;;;;;;5128857;27;20498;-73
2020/12/21 05:07:01;;;;;;;24.80;14.68;;;4.40;99.90;;;;;;5116431;28;20379;-73
2020/12/21 05:09:28;;;;;;;26.30;14.65;;;4.50;99.90;;;;;;5128761;27;20051;-73
2020/12/21 05:11:57;;;;;;;23.50;14.30;;;4.40;99.90;;;;;;5129686;27;20047;-73
2020/12/21 05:14:35;;;;;;;22.30;13.73;;;4.50;99.90;;;;;;5110655;28;20107;-73
2020/12/21 05:17:15;;;;;;;26.75;13.60;;;4.50;99.90;;;;;;5129065;27;20131;-73
2020/12/21 05:19:43;;;;;;;20.33;13.68;;;4.60;99.90;;;;;;5129098;28;20447;-74
2020/12/21 05:22:16;;;;;;;20.50;12.38;;;4.60;99.90;;;;;;5125399;28;20098;-74
2020/12/21 05:24:44;;;;;;;19.45;12.40;;;4.60;99.90;;;;;;5110215;28;20047;-73
2020/12/21 05:27:14;;;;;;;18.75;11.27;;;4.70;99.90;;;;;;5128013;28;20047;-74
2020/12/21 05:29:42;;;;;;;22.98;11.45;;;4.70;99.90;;;;;;5110033;28;20122;-73
2020/12/21 05:32:18;;;;;;;16.08;10.63;;;4.70;99.90;;;;;;5129293;28;20130;-74
2020/12/21 05:34:44;;;;;;;23.38;11.18;;;4.80;99.90;;;;;;5110782;28;20075;-73
2020/12/21 05:37:15;;;;;;;20.17;10.50;;;4.80;99.90;;;;;;5107997;28;20108;-77
2020/12/21 05:39:54;;;;;;;14.93;10.68;;;4.80;99.90;;;;;;5112387;27;20501;-77
2020/12/21 05:42:22;;;;;;;18.58;11.23;;;4.70;99.90;;;;;;5132862;27;20043;-77
2020/12/21 05:44:56;;;;;;;17.73;11.40;;;4.60;99.90;;;;;;5133074;27;20113;-77
2020/12/21 05:47:24;;;;;;;20.33;10.60;;;4.40;99.90;;;;;;5109580;27;20517;-77
2020/12/21 05:50:03;;;;;;;15.55;10.48;;;4.40;99.90;;;;;;5117874;27;20208;-77
2020/12/21 05:52:34;;;;;;;13.15;9.55;;;4.40;99.90;;;;;;5113777;27;20052;-78
2020/12/21 05:55:10;;;;;;;20.15;11.65;;;4.50;99.90;;;;;;5116359;27;20082;-77
2020/12/21 05:57:39;;;;;;;18.27;11.45;;;4.50;99.90;;;;;;5101326;28;20570;-77
2020/12/21 06:00:08;;;;;;;17.60;11.27;;;4.50;99.90;;;;;;5114984;27;20048;-77
2020/12/21 06:02:35;;;;;;;19.67;11.48;;;4.60;99.90;;;;;;5101692;28;20112;-78
2020/12/21 06:05:14;;;;;;;18.45;11.80;;;4.60;99.90;;;;;;5114536;27;20047;-77
2020/12/21 06:07:50;;;;;;;18.77;11.32;;;4.60;99.90;;;;;;5093069;28;20044;-73
2020/12/21 06:10:16;;;;;;;22.42;12.95;;;4.60;99.90;;;;;;5094944;27;20127;-73
2020/12/21 06:12:47;;;;;;;21.38;12.48;;;4.60;99.90;;;;;;5112728;27;20402;-74
2020/12/21 06:15:23;;;;;;;19.75;12.25;;;4.80;99.90;;;;;;5113062;27;20043;-74
2020/12/21 06:17:50;;;;;;;19.30;11.55;;;4.90;99.90;;;;;;5111828;28;20142;-74
2020/12/21 06:20:20;;;;;;;18.42;11.90;;;4.90;99.90;;;;;;5093623;27;20044;-74
2020/12/21 06:22:46;;;;;;;19.35;11.20;;;5.00;99.90;;;;;;5114912;27;20096;-73
2020/12/21 06:25:23;;;;;;;17.42;11.18;;;5.10;99.90;;;;;;5116809;27;20102;-73
2020/12/21 06:27:51;;;;;;;15.32;11.10;;;5.00;99.90;;;;;;5093122;28;20483;-74
2020/12/21 06:30:29;;;;;;;16.45;11.10;;;5.10;99.90;;;;;;5093283;28;20115;-73
2020/12/21 06:33:01;;;;;;;19.85;11.23;;;5.10;99.90;;;;;;5111735;27;20043;-73
2020/12/21 06:35:28;;;;;;;18.73;11.68;;;5.00;99.90;;;;;;5093365;28;20082;-74
2020/12/21 06:38:03;;;;;;;16.63;11.57;;;5.00;99.90;;;;;;5092872;28;20383;-73
2020/12/21 06:40:34;;;;;;;22.52;12.35;;;4.80;99.90;;;;;;5113529;27;20047;-73
2020/12/21 06:43:11;;;;;;;18.60;12.30;;;4.80;99.90;;;;;;5101615;27;20043;-73
2020/12/21 06:45:37;;;;;;;17.27;12.10;;;4.60;99.90;;;;;;5111917;27;20213;-75
2020/12/21 06:48:06;;;;;;;19.25;11.50;;;4.40;99.90;;;;;;5116868;27;20047;-73
2020/12/21 06:50:32;;;;;;;20.77;13.48;;;4.30;99.90;;;;;;5103629;27;20066;-74
2020/12/21 06:52:59;;;;;;;23.38;13.98;;;4.20;99.90;;;;;;5115698;27;20153;-72
2020/12/21 06:55:33;;;;;;;31.35;17.58;;;4.10;99.90;;;;;;5121506;27;20110;-74
2020/12/21 06:58:00;;;;;;;27.20;17.10;;;4.00;99.90;;;;;;5116052;27;20147;-74
2020/12/21 07:00:27;;;;;;;25.45;13.90;;;3.90;99.90;;;;;;5093634;28;20040;-74
2020/12/21 07:02:54;;;;;;;22.73;13.43;;;3.90;99.90;;;;;;5113750;27;20044;-75
2020/12/21 07:05:21;;;;;;;25.23;14.35;;;3.90;99.90;;;;;;5100322;27;20097;-74
2020/12/21 07:07:58;;;;;;;24.85;13.85;;;3.90;99.90;;;;;;5096795;27;20044;-74
2020/12/21 07:10:24;;;;;;;17.30;12.15;;;3.90;99.90;;;;;;5097914;27;20663;-74
2020/12/21 07:12:52;;;;;;;18.48;12.18;;;3.90;99.90;;;;;;5115434;27;20143;-75
2020/12/21 07:15:22;;;;;;;20.83;12.45;;;3.90;99.90;;;;;;5105980;27;20083;-74
2020/12/21 07:17:48;;;;;;;18.00;11.15;;;4.00;99.90;;;;;;5124673;27;20096;-75
2020/12/21 07:20:14;;;;;;;16.70;10.30;;;3.90;99.90;;;;;;5118405;27;20126;-74
2020/12/21 07:22:42;;;;;;;21.55;9.88;;;3.90;99.90;;;;;;5117808;27;20436;-75
2020/12/21 07:25:11;;;;;;;15.25;10.45;;;3.70;99.90;;;;;;5117568;27;20047;-75
2020/12/21 07:27:38;;;;;;;14.68;11.00;;;3.70;99.90;;;;;;5112073;27;20071;-75
2020/12/21 07:30:11;;;;;;;15.45;10.38;;;3.60;99.90;;;;;;5093673;28;20051;-74
2020/12/21 07:32:41;;;;;;;19.42;11.27;;;3.70;99.90;;;;;;5094078;27;20050;-74
2020/12/21 07:35:07;;;;;;;16.85;11.52;;;3.70;99.90;;;;;;5108886;27;20135;-75
2020/12/21 07:37:34;;;;;;;16.08;11.77;;;3.70;99.90;;;;;;5109356;27;20500;-74
2020/12/21 07:40:05;;;;;;;18.27;12.25;;;3.60;99.90;;;;;;5109100;27;20186;-74
2020/12/21 07:42:33;;;;;;;16.38;11.13;;;3.50;99.90;;;;;;5110955;27;20071;-74
2020/12/21 07:45:02;;;;;;;16.70;11.05;;;3.50;99.90;;;;;;5112067;27;20521;-73
2020/12/21 07:47:30;;;;;;;15.40;11.60;;;3.40;99.90;;;;;;5109650;28;20035;-75
2020/12/21 07:49:58;;;;;;;19.45;12.13;;;3.30;99.90;;;;;;5113193;27;20046;-75
2020/12/21 07:52:25;;;;;;;20.88;13.93;;;3.30;99.90;;;;;;5109614;28;20502;-74
2020/12/21 07:54:51;;;;;;;19.33;13.25;;;3.20;99.90;;;;;;5119299;27;20491;-73
2020/12/21 07:57:18;;;;;;;24.10;15.50;;;3.20;99.90;;;;;;5110443;27;20440;-72
2020/12/21 07:59:58;;;;;;;26.40;16.92;;;3.20;99.90;;;;;;5108604;28;20126;-72
2020/12/21 08:02:26;;;;;;;30.27;17.83;;;3.30;99.90;;;;;;5096566;28;20050;-73
2020/12/21 08:04:53;;;;;;;28.70;17.63;;;3.30;99.90;;;;;;5108986;28;20474;-73
2020/12/21 08:07:25;;;;;;;33.13;22.25;;;3.30;99.90;;;;;;5109643;27;20035;-72
2020/12/21 08:09:52;;;;;;;30.98;21.60;;;3.40;99.90;;;;;;5107924;27;20047;-73
2020/12/21 08:12:18;;;;;;;28.75;18.75;;;3.40;99.90;;;;;;5116550;27;20055;-73
2020/12/21 08:14:45;;;;;;;29.45;18.77;;;3.50;99.90;;;;;;5112756;27;20050;-74
2020/12/21 08:17:16;;;;;;;26.10;18.08;;;3.50;99.90;;;;;;5113135;27;20048;-73
2020/12/21 08:19:51;;;;;;;29.75;17.88;;;3.60;99.90;;;;;;5099516;28;20091;-74
2020/12/21 08:22:28;;;;;;;26.80;17.08;;;3.70;99.90;;;;;;5113278;27;20044;-74
2020/12/21 08:25:11;;;;;;;24.55;16.23;;;3.80;99.90;;;;;;5114038;27;20051;-74
2020/12/21 08:27:50;;;;;;;27.25;16.13;;;3.90;99.90;;;;;;5111374;27;20039;-75
2020/12/21 08:30:23;;;;;;;24.83;15.98;;;3.90;99.90;;;;;;5110583;27;20475;-73
2020/12/21 08:32:52;;;;;;;28.10;15.55;;;4.00;99.90;;;;;;5109001;28;20085;-74
2020/12/21 08:35:26;;;;;;;25.42;15.45;;;4.00;99.90;;;;;;5111103;27;20039;-74
2020/12/21 08:38:03;;;;;;;24.52;15.70;;;4.00;99.90;;;;;;5109617;28;20054;-74
2020/12/21 08:40:30;;;;;;;25.42;16.00;;;4.00;99.90;;;;;;5107796;28;20051;-74
2020/12/21 08:42:59;;;;;;;23.00;15.82;;;4.10;99.90;;;;;;5095876;28;20042;-74
2020/12/21 08:45:26;;;;;;;23.95;16.67;;;4.20;99.90;;;;;;5103480;27;20097;-74
2020/12/21 08:47:52;;;;;;;23.27;14.30;;;4.30;99.90;;;;;;5113735;27;20150;-74
2020/12/21 08:50:19;;;;;;;21.80;13.80;;;4.30;99.90;;;;;;5107986;28;20096;-74
2020/12/21 08:52:48;;;;;;;22.63;13.82;;;4.40;99.90;;;;;;5108308;27;20523;-74
2020/12/21 08:55:14;;;;;;;21.33;13.07;;;4.40;99.90;;;;;;5108952;28;20047;-73
2020/12/21 08:57:42;;;;;;;15.77;10.13;;;4.50;99.90;;;;;;5108753;28;20410;-74
2020/12/21 09:00:09;;;;;;;15.75;10.02;;;4.60;99.90;;;;;;5110889;28;20040;-74
2020/12/21 09:02:35;;;;;;;13.05;9.15;;;4.70;99.90;;;;;;5110716;28;20075;-74
2020/12/21 09:05:05;;;;;;;14.32;9.52;;;4.80;99.90;;;;;;5109490;28;20120;-74
2020/12/21 09:07:35;;;;;;;17.52;9.93;;;4.90;99.90;;;;;;5109154;28;20156;-74
2020/12/21 09:10:03;;;;;;;13.07;9.70;;;5.00;99.90;;;;;;5109049;27;20074;-74
2020/12/21 09:12:30;;;;;;;15.38;10.45;;;4.90;99.90;;;;;;5121181;27;20479;-74
2020/12/21 09:14:57;;;;;;;16.20;10.82;;;4.90;99.90;;;;;;5094215;28;20144;-74
2020/12/21 09:17:23;;;;;;;16.00;10.57;;;5.00;99.90;;;;;;5115073;27;20043;-74
2020/12/21 09:19:49;;;;;;;14.07;9.18;;;5.00;99.90;;;;;;5113619;27;20043;-74
2020/12/21 09:22:16;;;;;;;16.15;9.93;;;5.00;99.90;;;;;;5112295;28;20040;-74
2020/12/21 09:24:42;;;;;;;16.38;11.25;;;5.00;99.90;;;;;;5092719;28;20051;-73
2020/12/21 09:27:09;;;;;;;13.52;10.02;;;5.00;99.90;;;;;;5112943;27;20050;-75
2020/12/21 09:29:36;;;;;;;13.32;10.50;;;5.10;99.90;;;;;;5112055;28;20036;-73
2020/12/21 09:32:05;;;;;;;15.38;10.18;;;5.10;99.90;;;;;;5112770;27;20131;-74
2020/12/21 09:34:31;;;;;;;13.95;9.32;;;5.20;99.90;;;;;;5112151;27;20044;-73
2020/12/21 09:36:58;;;;;;;10.88;8.63;;;5.30;99.90;;;;;;5112549;27;20435;-74
2020/12/21 09:39:25;;;;;;;13.02;8.80;;;5.40;99.90;;;;;;5112786;27;20387;-74
2020/12/21 09:41:52;;;;;;;11.93;8.27;;;5.60;99.90;;;;;;5111641;27;20079;-74
2020/12/21 09:44:20;;;;;;;11.75;7.50;;;5.60;99.90;;;;;;5111721;27;20044;-73
2020/12/21 09:46:49;;;;;;;16.15;9.40;;;5.70;99.90;;;;;;5114433;27;20047;-73
2020/12/21 09:49:15;;;;;;;11.02;7.85;;;5.70;99.90;;;;;;5111637;27;20044;-74
2020/12/21 09:51:41;;;;;;;11.13;8.32;;;5.80;99.90;;;;;;5111933;28;20089;-74
2020/12/21 09:54:08;;;;;;;11.95;6.95;;;5.90;99.90;;;;;;5113109;27;20466;-75
2020/12/21 09:56:35;;;;;;;14.77;7.18;;;6.00;99.90;;;;;;5099062;27;20062;-73
2020/12/21 09:59:02;;;;;;;9.85;6.68;;;6.10;99.90;;;;;;5117305;27;20079;-74
2020/12/21 10:01:29;;;;;;;17.63;9.60;;;6.20;99.90;;;;;;5113123;27;20086;-74
2020/12/21 10:03:59;;;;;;;16.42;11.38;;;6.10;99.90;;;;;;5113826;27;20055;-74
2020/12/21 10:06:26;;;;;;;13.40;7.97;;;6.10;99.90;;;;;;5110765;27;20119;-73
2020/12/21 10:08:52;;;;;;;12.43;7.40;;;6.00;99.90;;;;;;5113515;27;21695;-74
2020/12/21 10:11:19;;;;;;;9.13;6.50;;;6.00;99.90;;;;;;5110750;27;20051;-74
2020/12/21 10:13:45;;;;;;;10.20;7.13;;;6.00;99.90;;;;;;5093018;28;20409;-73
2020/12/21 10:16:13;;;;;;;11.13;6.82;;;6.00;99.90;;;;;;5111932;27;20509;-74
2020/12/21 10:18:39;;;;;;;11.40;7.20;;;6.00;99.90;;;;;;5117407;27;20075;-74
2020/12/21 10:21:07;;;;;;;14.85;7.68;;;6.00;99.90;;;;;;5113393;27;20049;-74
2020/12/21 10:23:33;;;;;;;12.90;7.05;;;6.00;99.90;;;;;;5100779;28;20484;-74
2020/12/21 10:26:03;;;;;;;11.18;6.97;;;6.00;99.90;;;;;;5092270;27;20050;-74
2020/12/21 10:28:29;;;;;;;11.07;6.03;;;6.00;99.90;;;;;;5113456;27;20070;-73
2020/12/21 10:30:56;;;;;;;10.68;5.82;;;6.10;99.90;;;;;;5110437;27;20124;-74
2020/12/21 10:33:24;;;;;;;8.77;5.35;;;6.20;99.90;;;;;;5115302;27;20093;-74
2020/12/21 10:35:50;;;;;;;9.65;5.15;;;6.30;99.90;;;;;;5109572;27;20469;-74
2020/12/21 10:38:17;;;;;;;7.03;4.90;;;6.30;99.90;;;;;;5111284;27;20115;-73
2020/12/21 10:40:43;;;;;;;12.25;6.25;;;6.40;99.90;;;;;;5114825;27;20154;-73
2020/12/21 10:43:09;;;;;;;13.07;5.57;;;6.40;99.90;;;;;;5092305;28;20052;-74
2020/12/21 10:45:36;;;;;;;9.23;5.45;;;6.40;99.90;;;;;;5113123;27;20081;-74
2020/12/21 10:48:04;;;;;;;8.38;5.57;;;6.40;99.90;;;;;;5095202;28;20207;-74
2020/12/21 10:50:31;;;;;;;12.07;5.40;;;6.40;99.90;;;;;;5115703;27;20099;-74
2020/12/21 10:52:57;;;;;;;15.60;5.85;;;6.40;99.90;;;;;;5110664;27;20301;-75
2020/12/21 10:55:24;;;;;;;10.25;5.28;;;6.50;99.90;;;;;;5109502;27;20110;-74
2020/12/21 10:57:50;;;;;;;8.95;5.00;;;6.50;99.90;;;;;;5110290;27;20047;-74
2020/12/21 11:00:17;;;;;;;9.35;4.93;;;6.50;99.90;;;;;;5113187;27;20047;-74
2020/12/21 11:02:43;;;;;;;7.38;4.43;;;6.50;99.90;;;;;;5114279;27;20119;-73
2020/12/21 11:05:10;;;;;;;9.10;4.80;;;6.50;99.90;;;;;;5111697;27;20526;-73
2020/12/21 11:07:37;;;;;;;11.10;4.63;;;6.50;99.90;;;;;;5110049;27;20043;-74
2020/12/21 11:10:10;;;;;;;;;;;6.50;99.90;;;;;;5112254;27;20126;-74
2020/12/21 11:12:37;;;;;;;9.27;4.82;;;6.60;99.90;;;;;;5096983;28;20387;-75
2020/12/21 11:15:05;;;;;;;11.10;6.03;;;6.60;99.90;;;;;;5110149;28;20162;-74
2020/12/21 11:17:32;;;;;;;7.30;4.80;;;6.60;99.90;;;;;;5109514;27;20051;-73
2020/12/21 11:19:59;;;;;;;10.02;5.72;;;6.60;99.90;;;;;;5109381;27;20132;-75
2020/12/21 11:22:26;;;;;;;13.32;7.55;;;6.60;99.90;;;;;;5114178;27;20083;-74
2020/12/21 11:24:53;;;;;;;8.48;5.88;;;6.70;99.90;;;;;;5111890;27;20069;-73
2020/12/21 11:27:19;;;;;;;6.28;4.70;;;6.60;99.90;;;;;;5112460;27;20063;-73
2020/12/21 11:29:46;;;;;;;7.00;4.88;;;6.60;99.90;;;;;;5109022;28;20178;-74
2020/12/21 11:32:22;;;;;;;7.38;5.05;;;6.70;99.90;;;;;;5092344;28;20044;-74
2020/12/21 11:34:49;;;;;;;7.05;5.10;;;6.70;99.90;;;;;;5108795;28;20082;-74
2020/12/21 11:37:16;;;;;;;6.50;5.22;;;6.70;99.90;;;;;;5093540;28;20394;-74
2020/12/21 11:39:42;;;;;;;7.75;4.88;;;6.80;99.90;;;;;;5113028;27;20047;-74
2020/12/21 11:42:09;;;;;;;6.00;4.10;;;6.80;99.90;;;;;;5091293;28;20051;-74
2020/12/21 11:44:36;;;;;;;6.25;4.45;;;6.90;99.90;;;;;;5097543;28;20051;-75
2020/12/21 11:47:12;;;;;;;7.03;4.55;;;6.90;99.90;;;;;;5109684;27;20043;-74
2020/12/21 11:49:39;;;;;;;6.55;4.38;;;7.00;99.90;;;;;;5108976;27;20071;-75
2020/12/21 11:52:06;;;;;;;7.50;4.47;;;7.10;99.90;;;;;;5109525;27;20456;-74
2020/12/21 11:54:33;;;;;;;7.30;5.22;;;7.10;99.90;;;;;;5113502;27;20490;-74
2020/12/21 11:56:59;;;;;;;10.02;5.53;;;7.10;99.90;;;;;;5110970;27;20108;-75
2020/12/21 11:59:27;;;;;;;8.88;4.85;;;7.10;99.90;;;;;;5114651;27;20039;-74
2020/12/21 12:02:01;;;;;;;8.82;5.38;;;7.00;99.90;;;;;;5095106;27;20130;-73
2020/12/21 12:04:28;;;;;;;8.57;6.07;;;7.10;99.90;;;;;;5117854;27;20397;-74
2020/12/21 12:06:55;;;;;;;9.75;6.90;;;7.00;99.90;;;;;;5108547;27;20047;-73
2020/12/21 12:09:24;;;;;;;9.07;6.35;;;6.90;99.90;;;;;;5108599;27;20470;-73
2020/12/21 12:11:52;;;;;;;11.00;6.97;;;6.90;99.90;;;;;;5111600;27;20044;-73
2020/12/21 12:14:19;;;;;;;9.52;6.80;;;6.90;99.90;;;;;;5103009;28;20047;-73
2020/12/21 12:16:45;;;;;;;11.23;7.10;;;6.80;99.90;;;;;;5090964;28;20047;-74
2020/12/21 12:19:12;;;;;;;9.75;7.60;;;6.80;99.90;;;;;;5113881;27;20494;-74
2020/12/21 12:21:38;;;;;;;9.75;6.70;;;6.80;99.90;;;;;;5094641;27;20052;-74
2020/12/21 12:24:05;;;;;;;8.73;7.63;;;6.80;99.90;;;;;;5115560;27;20058;-74
2020/12/21 12:26:32;;;;;;;8.70;6.38;;;6.80;99.90;;;;;;5111280;27;20054;-74
2020/12/21 12:28:58;;;;;;;9.15;6.07;;;6.80;99.90;;;;;;5116374;27;20374;-74
2020/12/21 12:31:25;;;;;;;10.32;7.57;;;6.90;99.90;;;;;;5091952;27;20205;-74
2020/12/21 12:33:52;;;;;;;7.25;5.40;;;7.00;99.90;;;;;;5097051;28;20517;-74
2020/12/21 12:36:19;;;;;;;9.10;5.85;;;7.00;99.90;;;;;;5109865;27;20074;-73
2020/12/21 12:38:46;;;;;;;19.92;11.70;;;7.10;99.90;;;;;;5110645;28;20436;-73
2020/12/21 12:41:13;;;;;;;10.07;5.82;;;7.10;99.90;;;;;;5110296;27;20059;-73
2020/12/21 12:43:40;;;;;;;6.35;4.90;;;7.20;99.90;;;;;;5110893;27;20044;-73
2020/12/21 12:46:07;;;;;;;7.93;4.55;;;7.30;99.90;;;;;;5112173;27;20040;-73
2020/12/21 12:48:34;;;;;;;7.50;4.95;;;7.30;99.90;;;;;;5108728;28;20108;-73